Time;durP1;ratioP1;P1;durP2;ratioP2;P2;SDS_P1;SDS_P2;PMS_P1;PMS_P2;Temp;Humidity;BMP_temperature;BMP_pressure;BME280_temperature;BME280_humidity;BME280_pressure;Samples;Min_cycle;Max_cycle;Signal;HPM_P1;HPM_P2
2022/12/21 00:01:56;;;;;;;19.43;17.30;;;;;;;;;;4998480;28;20316;-86
2022/12/21 00:04:25;;;;;;;18.37;16.57;;;;;;;;;;4992849;28;20224;-86
2022/12/21 00:06:50;;;;;;;17.47;15.83;;;;;;;;;;4970085;28;20224;-86
2022/12/21 00:09:16;;;;;;;18.33;16.10;;;;;;;;;;4984610;28;20695;-85
2022/12/21 00:11:44;;;;;;;19.13;17.43;;;;;;;;;;4988752;28;20224;-84
2022/12/21 00:14:09;;;;;;;18.97;17.27;;;;;;;;;;4964112;28;20757;-86
2022/12/21 00:16:37;;;;;;;19.03;17.13;;;;;;;;;;4985886;28;20233;-86
2022/12/21 00:19:02;;;;;;;19.30;17.30;;;;;;;;;;4983420;28;20229;-83
2022/12/21 00:21:32;;;;;;;19.33;17.57;;;;;;;;;;4965658;28;20233;-86
2022/12/21 00:24:00;;;;;;;19.43;17.57;;;;;;;;;;4963430;28;20227;-86
2022/12/21 00:26:31;;;;;;;19.30;17.27;;;;;;;;;;4964644;28;20277;-87
2022/12/21 00:28:59;;;;;;;19.20;17.50;;;;;;;;;;4972695;28;20228;-85
2022/12/21 00:31:28;;;;;;;18.30;16.67;;;;;;;;;;4972841;28;20253;-87
2022/12/21 00:33:55;;;;;;;19.80;17.90;;;;;;;;;;4969275;28;20256;-87
2022/12/21 00:36:21;;;;;;;22.27;17.60;;;;;;;;;;4973574;28;20243;-87
2022/12/21 00:38:49;;;;;;;19.40;17.40;;;;;;;;;;4962090;28;20218;-87
2022/12/21 00:41:19;;;;;;;19.70;17.87;;;;;;;;;;4969659;28;20262;-85
2022/12/21 00:43:49;;;;;;;20.00;18.20;;;;;;;;;;4969334;28;20228;-83
2022/12/21 00:46:19;;;;;;;21.00;18.53;;;;;;;;;;4952304;28;20222;-84
2022/12/21 00:48:45;;;;;;;19.27;17.47;;;;;;;;;;4965222;28;20947;-86
2022/12/21 00:51:16;;;;;;;21.40;19.40;;;;;;;;;;4978353;28;20240;-85
2022/12/21 00:53:42;;;;;;;20.87;18.57;;;;;;;;;;4989635;28;20261;-84
2022/12/21 00:56:10;;;;;;;19.23;17.50;;;;;;;;;;5007464;28;20212;-85
2022/12/21 00:58:36;;;;;;;20.23;18.33;;;;;;;;;;4985368;28;20226;-83
2022/12/21 01:01:07;;;;;;;20.70;18.77;;;;;;;;;;5009015;28;20238;-84
2022/12/21 01:03:32;;;;;;;20.90;18.97;;;;;;;;;;4978787;28;20257;-84
2022/12/21 01:06:00;;;;;;;21.63;19.53;;;;;;;;;;4984060;28;20230;-84
2022/12/21 01:08:28;;;;;;;21.30;19.27;;;;;;;;;;4976125;28;20218;-83
2022/12/21 01:10:59;;;;;;;21.17;19.37;;;;;;;;;;5003777;28;20300;-83
2022/12/21 01:13:28;;;;;;;20.63;18.73;;;;;;;;;;4969753;28;20270;-86
2022/12/21 01:15:56;;;;;;;22.20;20.00;;;;;;;;;;4961035;28;20285;-85
2022/12/21 01:18:26;;;;;;;21.93;19.73;;;;;;;;;;4977275;28;20374;-87
2022/12/21 01:20:55;;;;;;;23.23;21.03;;;;;;;;;;4963951;28;20234;-87
2022/12/21 01:23:21;;;;;;;21.80;19.63;;;;;;;;;;4979210;28;20680;-84
2022/12/21 01:25:47;;;;;;;23.50;21.17;;;;;;;;;;4996381;28;20313;-84
2022/12/21 01:28:15;;;;;;;22.47;20.17;;;;;;;;;;5006320;28;20217;-83
2022/12/21 01:30:43;;;;;;;21.97;19.47;;;;;;;;;;4978969;28;20246;-85
2022/12/21 01:33:17;;;;;;;23.07;20.87;;;;;;;;;;4976406;28;20224;-84
2022/12/21 01:35:46;;;;;;;23.43;21.13;;;;;;;;;;4996395;28;20230;-84
2022/12/21 01:38:16;;;;;;;23.97;21.60;;;;;;;;;;4981223;28;20233;-85
2022/12/21 01:40:43;;;;;;;23.73;21.33;;;;;;;;;;4989092;28;20217;-83
2022/12/21 01:43:38;;;;;;;23.77;21.53;;;;;;;;;;4975666;28;20765;-85
2022/12/21 01:46:04;;;;;;;21.70;19.67;;;;;;;;;;5000403;28;20234;-84
2022/12/21 01:48:32;;;;;;;22.40;20.20;;;;;;;;;;4992553;28;20236;-84
2022/12/21 01:51:01;;;;;;;22.83;20.60;;;;;;;;;;5002288;28;20237;-84
2022/12/21 01:53:36;;;;;;;25.77;21.63;;;;;;;;;;4974971;28;20286;-86
2022/12/21 01:56:04;;;;;;;25.70;21.53;;;;;;;;;;4988340;28;20245;-85
2022/12/21 01:58:30;;;;;;;23.30;20.87;;;;;;;;;;4964715;28;20237;-85
2022/12/21 02:00:57;;;;;;;22.50;20.20;;;;;;;;;;4959703;28;20236;-86
2022/12/21 02:03:33;;;;;;;23.30;21.07;;;;;;;;;;4960496;28;20297;-88
2022/12/21 02:06:20;;;;;;;23.67;21.27;;;;;;;;;;4963485;28;20229;-88
2022/12/21 02:08:48;;;;;;;23.07;20.77;;;;;;;;;;4998124;28;20232;-87
2022/12/21 02:11:13;;;;;;;22.10;19.87;;;;;;;;;;4995905;28;20768;-87
2022/12/21 02:13:41;;;;;;;22.53;20.33;;;;;;;;;;4983941;28;20227;-87
2022/12/21 02:16:26;;;;;;;23.50;20.83;;;;;;;;;;4982410;28;20235;-85
2022/12/21 02:19:38;;;;;;;23.60;20.63;;;;;;;;;;4973594;28;20221;-88
2022/12/21 02:22:15;;;;;;;22.83;20.43;;;;;;;;;;4984824;28;20233;-87
2022/12/21 02:25:20;;;;;;;24.53;21.93;;;;;;;;;;4979871;28;20217;-87
2022/12/21 02:27:55;;;;;;;22.20;19.97;;;;;;;;;;4998583;28;20220;-84
2022/12/21 02:30:21;;;;;;;23.10;20.67;;;;;;;;;;4997750;28;20233;-85
2022/12/21 02:33:10;;;;;;;36.47;21.90;;;;;;;;;;4959710;28;20612;-89
2022/12/21 02:35:59;;;;;;;25.17;20.17;;;;;;;;;;5010542;28;20280;-86
2022/12/21 02:38:48;;;;;;;49.87;21.20;;;;;;;;;;5003351;28;20262;-86
2022/12/21 02:41:22;;;;;;;21.60;19.30;;;;;;;;;;4961703;28;20252;-88
2022/12/21 02:44:12;;;;;;;23.83;19.83;;;;;;;;;;4975944;28;20229;-88
2022/12/21 02:47:29;;;;;;;26.07;19.90;;;;;;;;;;4968307;28;20221;-86
2022/12/21 02:50:02;;;;;;;24.50;18.77;;;;;;;;;;4952624;28;20226;-86
2022/12/21 02:52:46;;;;;;;20.70;18.57;;;;;;;;;;4953405;28;20216;-86
2022/12/21 02:55:12;;;;;;;20.33;18.23;;;;;;;;;;5001720;28;20929;-87
2022/12/21 02:57:40;;;;;;;20.77;17.30;;;;;;;;;;4944419;28;20312;-88
2022/12/21 03:00:10;;;;;;;19.67;17.33;;;;;;;;;;4959922;28;20239;-86
2022/12/21 03:06:13;;;;;;;16.70;14.90;;;;;;;;;;5010578;28;20220;-87
2022/12/21 03:09:28;;;;;;;18.67;15.60;;;;;;;;;;4998454;28;20649;-88
2022/12/21 03:12:07;;;;;;;18.20;16.30;;;;;;;;;;4905591;29;20247;-88
2022/12/21 03:14:45;;;;;;;17.40;15.63;;;;;;;;;;4916221;29;20763;-87
2022/12/21 03:17:17;;;;;;;19.17;16.43;;;;;;;;;;4980587;28;20221;-87
2022/12/21 03:19:53;;;;;;;17.83;16.00;;;;;;;;;;4981158;28;20233;-88
2022/12/21 03:22:33;;;;;;;17.07;15.43;;;;;;;;;;4960446;28;20229;-87
2022/12/21 03:25:13;;;;;;;20.50;15.87;;;;;;;;;;4959168;28;20304;-87
2022/12/21 03:27:43;;;;;;;27.63;16.67;;;;;;;;;;4945985;28;20308;-88
2022/12/21 03:30:14;;;;;;;36.43;17.00;;;;;;;;;;4940348;28;20277;-88
2022/12/21 03:32:47;;;;;;;23.00;15.03;;;;;;;;;;4947459;28;20313;-86
2022/12/21 03:35:20;;;;;;;16.77;14.97;;;;;;;;;;4962711;28;20234;-87
2022/12/21 03:37:46;;;;;;;15.10;13.53;;;;;;;;;;4943492;28;20230;-87
2022/12/21 03:40:17;;;;;;;16.23;14.60;;;;;;;;;;4947583;28;20222;-87
2022/12/21 03:42:54;;;;;;;19.57;15.00;;;;;;;;;;4941277;28;20222;-87
2022/12/21 03:45:26;;;;;;;16.13;14.13;;;;;;;;;;4944476;28;23121;-86
2022/12/21 03:48:13;;;;;;;14.70;13.20;;;;;;;;;;4960975;28;20725;-87
2022/12/21 03:50:43;;;;;;;18.67;13.97;;;;;;;;;;4999211;28;20292;-87
2022/12/21 03:53:20;;;;;;;23.83;14.40;;;;;;;;;;4968546;28;20231;-87
2022/12/21 03:55:46;;;;;;;16.40;13.03;;;;;;;;;;4971665;28;20230;-87
2022/12/21 03:58:14;;;;;;;20.40;13.37;;;;;;;;;;4945485;28;20229;-86
2022/12/21 04:00:51;;;;;;;26.37;12.87;;;;;;;;;;4943819;28;20222;-86
2022/12/21 04:03:25;;;;;;;34.87;12.07;;;;;;;;;;4965895;28;20300;-86
2022/12/21 04:05:53;;;;;;;24.77;11.73;;;;;;;;;;4967531;28;20225;-87
2022/12/21 04:08:21;;;;;;;98.87;11.23;;;;;;;;;;4946340;28;20241;-86
2022/12/21 04:10:49;;;;;;;62.63;9.97;;;;;;;;;;4944310;28;20313;-86
2022/12/21 04:13:18;;;;;;;79.33;10.10;;;;;;;;;;4975424;28;20608;-86
2022/12/21 04:16:04;;;;;;;77.40;11.50;;;;;;;;;;4979935;28;20288;-86
2022/12/21 04:21:17;;;;;;;25.23;9.73;;;;;;;;;;4974983;28;20290;-87
2022/12/21 04:29:12;;;;;;;65.47;8.23;;;;;;;;;;5001690;28;20229;-87
2022/12/21 04:31:37;;;;;;;27.77;6.77;;;;;;;;;;4981685;28;20215;-86
2022/12/21 04:34:06;;;;;;;62.83;9.67;;;;;;;;;;4981504;28;20318;-86
2022/12/21 04:39:15;;;;;;;85.53;11.70;;;;;;;;;;5008819;28;20248;-86
2022/12/21 04:41:43;;;;;;;60.17;11.60;;;;;;;;;;4977969;28;20237;-85
2022/12/21 04:44:11;;;;;;;59.60;11.43;;;;;;;;;;4976663;28;20209;-85
2022/12/21 04:46:37;;;;;;;72.00;12.53;;;;;;;;;;4978927;28;20222;-85
2022/12/21 04:49:03;;;;;;;52.93;12.73;;;;;;;;;;4978796;28;20221;-85
2022/12/21 04:51:29;;;;;;;56.67;14.27;;;;;;;;;;5000004;28;20262;-84
2022/12/21 04:53:56;;;;;;;90.23;12.73;;;;;;;;;;5000671;28;20232;-84
2022/12/21 04:56:24;;;;;;;65.07;14.00;;;;;;;;;;4992928;28;20220;-86
2022/12/21 04:58:52;;;;;;;65.50;14.93;;;;;;;;;;4988096;28;20221;-87
2022/12/21 05:01:19;;;;;;;50.57;13.17;;;;;;;;;;4980670;28;20227;-85
2022/12/21 05:03:47;;;;;;;145.33;17.13;;;;;;;;;;4959947;28;20310;-86
2022/12/21 05:06:15;;;;;;;107.77;15.13;;;;;;;;;;4981350;28;20248;-84
2022/12/21 05:08:41;;;;;;;78.87;13.20;;;;;;;;;;4959188;28;20233;-86
2022/12/21 05:11:10;;;;;;;84.87;13.30;;;;;;;;;;4943929;28;20234;-85
2022/12/21 05:13:36;;;;;;;116.20;14.40;;;;;;;;;;4977446;28;20218;-85
2022/12/21 05:16:04;;;;;;;43.57;12.90;;;;;;;;;;4955213;28;20218;-84
2022/12/21 05:18:30;;;;;;;24.47;12.47;;;;;;;;;;4994828;28;20224;-86
2022/12/21 05:20:58;;;;;;;36.00;10.83;;;;;;;;;;4969579;28;20218;-86
2022/12/21 05:23:23;;;;;;;55.17;8.83;;;;;;;;;;4960438;28;20221;-86
2022/12/21 05:25:53;;;;;;;69.07;5.67;;;;;;;;;;4992611;28;20233;-86
2022/12/21 05:28:24;;;;;;;58.20;6.63;;;;;;;;;;4989261;28;20224;-87
2022/12/21 05:30:57;;;;;;;47.23;6.90;;;;;;;;;;4961031;28;20225;-86
2022/12/21 05:33:24;;;;;;;21.13;7.13;;;;;;;;;;4974118;28;20225;-86
2022/12/21 05:35:50;;;;;;;69.33;10.40;;;;;;;;;;4975865;28;20709;-86
2022/12/21 05:38:18;;;;;;;176.57;17.30;;;;;;;;;;4962146;28;20230;-88
2022/12/21 05:40:48;;;;;;;90.93;13.27;;;;;;;;;;4958203;28;20222;-87
2022/12/21 05:43:18;;;;;;;114.37;14.50;;;;;;;;;;4962684;28;20253;-86
2022/12/21 05:45:44;;;;;;;115.03;14.30;;;;;;;;;;4950690;28;20245;-88
2022/12/21 05:48:09;;;;;;;70.63;12.27;;;;;;;;;;4958664;28;20233;-87
2022/12/21 05:50:40;;;;;;;131.23;13.47;;;;;;;;;;4966733;28;20214;-87
2022/12/21 05:53:08;;;;;;;99.67;14.87;;;;;;;;;;4980342;28;20237;-85
2022/12/21 05:55:34;;;;;;;100.97;14.23;;;;;;;;;;4969063;28;20228;-88
2022/12/21 05:58:02;;;;;;;69.10;13.83;;;;;;;;;;4968936;28;20228;-86
2022/12/21 06:00:30;;;;;;;83.00;11.03;;;;;;;;;;4971837;28;20217;-87
2022/12/21 06:02:55;;;;;;;80.50;13.67;;;;;;;;;;4979156;28;20217;-86
2022/12/21 06:05:21;;;;;;;104.63;13.87;;;;;;;;;;4980201;28;20218;-86
2022/12/21 06:07:51;;;;;;;97.20;13.87;;;;;;;;;;4983727;28;20248;-87
2022/12/21 06:10:22;;;;;;;105.23;13.27;;;;;;;;;;4983682;28;20568;-88
2022/12/21 06:12:47;;;;;;;56.13;11.53;;;;;;;;;;4997835;28;20224;-87
2022/12/21 06:15:18;;;;;;;51.77;12.37;;;;;;;;;;4973415;28;20229;-86
2022/12/21 06:17:46;;;;;;;92.50;14.03;;;;;;;;;;5000133;28;20362;-87
2022/12/21 06:20:12;;;;;;;48.00;10.97;;;;;;;;;;4980846;28;20225;-85
2022/12/21 06:22:40;;;;;;;190.80;10.90;;;;;;;;;;4998758;28;20248;-86
2022/12/21 06:25:06;;;;;;;90.07;8.57;;;;;;;;;;4996264;28;20254;-87
2022/12/21 06:27:34;;;;;;;85.20;8.13;;;;;;;;;;4979681;28;20220;-87
2022/12/21 06:30:02;;;;;;;88.17;11.67;;;;;;;;;;4988785;28;20225;-87
2022/12/21 06:32:32;;;;;;;93.43;12.90;;;;;;;;;;4980158;28;20231;-86
2022/12/21 06:34:58;;;;;;;78.00;11.70;;;;;;;;;;4999439;28;20231;-87
2022/12/21 06:37:25;;;;;;;92.67;14.57;;;;;;;;;;4981001;28;20224;-85
2022/12/21 06:39:51;;;;;;;73.00;13.43;;;;;;;;;;4992781;28;20231;-87
2022/12/21 06:42:16;;;;;;;45.80;12.37;;;;;;;;;;4991354;28;20226;-86
2022/12/21 06:44:50;;;;;;;60.03;11.03;;;;;;;;;;4995077;28;20224;-87
2022/12/21 06:47:16;;;;;;;93.57;12.30;;;;;;;;;;4994787;28;20321;-84
2022/12/21 06:49:47;;;;;;;96.33;10.87;;;;;;;;;;4995669;28;20271;-86
2022/12/21 06:52:12;;;;;;;84.73;11.77;;;;;;;;;;5007893;28;20284;-87
2022/12/21 06:54:42;;;;;;;208.40;16.83;;;;;;;;;;4986433;28;20231;-86
2022/12/21 06:57:10;;;;;;;98.33;13.30;;;;;;;;;;5000453;28;20259;-86
2022/12/21 06:59:36;;;;;;;144.57;14.90;;;;;;;;;;5000580;28;20221;-85
2022/12/21 07:02:05;;;;;;;88.53;11.23;;;;;;;;;;4994557;28;20278;-88
2022/12/21 07:04:52;;;;;;;40.50;11.57;;;;;;;;;;4989216;28;20216;-84
2022/12/21 07:07:20;;;;;;;107.00;10.23;;;;;;;;;;5008999;28;20218;-86
2022/12/21 07:09:45;;;;;;;42.90;12.13;;;;;;;;;;4975074;28;20749;-86
2022/12/21 07:12:13;;;;;;;81.43;11.10;;;;;;;;;;4958548;28;20244;-87
2022/12/21 07:14:41;;;;;;;20.20;8.07;;;;;;;;;;4959175;28;20229;-86
2022/12/21 07:17:08;;;;;;;98.03;8.30;;;;;;;;;;4975223;28;20210;-86
2022/12/21 07:19:36;;;;;;;121.47;9.63;;;;;;;;;;4978190;28;20229;-86
2022/12/21 07:22:07;;;;;;;60.27;9.83;;;;;;;;;;4981447;28;20244;-86
2022/12/21 07:24:37;;;;;;;83.90;10.57;;;;;;;;;;4965466;28;20229;-84
2022/12/21 07:27:14;;;;;;;69.13;11.83;;;;;;;;;;4996128;28;20248;-84
2022/12/21 07:29:48;;;;;;;33.10;9.07;;;;;;;;;;4964543;28;20256;-87
2022/12/21 07:32:16;;;;;;;24.77;9.00;;;;;;;;;;5026399;28;20212;-83
2022/12/21 07:34:41;;;;;;;161.57;11.50;;;;;;;;;;4999144;23;20244;-75
2022/12/21 07:37:09;;;;;;;65.37;12.00;;;;;;;;;;4972498;28;20234;-76
2022/12/21 07:39:37;;;;;;;22.27;7.97;;;;;;;;;;4998617;28;20228;-75
2022/12/21 07:42:05;;;;;;;10.70;7.43;;;;;;;;;;5004961;28;20234;-76
2022/12/21 07:44:32;;;;;;;93.83;10.20;;;;;;;;;;4969485;28;20376;-76
2022/12/21 07:47:18;;;;;;;111.40;10.57;;;;;;;;;;4985941;28;20225;-74
2022/12/21 07:49:44;;;;;;;84.43;14.53;;;;;;;;;;4975353;28;20229;-75
2022/12/21 07:52:10;;;;;;;51.90;15.40;;;;;;;;;;4959889;28;20232;-74
2022/12/21 07:54:36;;;;;;;58.50;18.47;;;;;;;;;;4960928;28;20225;-75
2022/12/21 07:57:01;;;;;;;62.80;16.87;;;;;;;;;;4963506;28;20716;-75
2022/12/21 07:59:30;;;;;;;63.67;15.30;;;;;;;;;;4975728;28;20803;-75
2022/12/21 08:01:55;;;;;;;97.57;23.23;;;;;;;;;;4962548;28;20226;-76
2022/12/21 08:04:21;;;;;;;61.13;14.47;;;;;;;;;;4963430;28;20221;-75
2022/12/21 08:06:50;;;;;;;45.47;15.23;;;;;;;;;;4952988;28;20218;-76
2022/12/21 08:09:15;;;;;;;182.77;15.93;;;;;;;;;;4956856;28;20245;-76
2022/12/21 08:11:41;;;;;;;41.90;13.50;;;;;;;;;;4952095;28;20245;-76
2022/12/21 08:14:09;;;;;;;114.57;14.20;;;;;;;;;;4944994;28;20222;-76
2022/12/21 08:16:35;;;;;;;87.07;16.63;;;;;;;;;;4958270;28;20233;-76
2022/12/21 08:19:00;;;;;;;82.27;19.43;;;;;;;;;;4972281;28;20662;-76
2022/12/21 08:21:26;;;;;;;46.60;16.00;;;;;;;;;;4972874;28;20228;-76
2022/12/21 08:23:51;;;;;;;58.17;18.70;;;;;;;;;;4962481;28;20229;-77
2022/12/21 08:26:22;;;;;;;69.27;19.77;;;;;;;;;;4943677;28;20662;-75
2022/12/21 08:28:48;;;;;;;67.10;15.83;;;;;;;;;;4953621;28;20222;-77
2022/12/21 08:31:15;;;;;;;57.37;15.00;;;;;;;;;;4952127;28;20707;-78
2022/12/21 08:33:45;;;;;;;82.63;15.07;;;;;;;;;;4969653;28;20655;-77
2022/12/21 08:36:13;;;;;;;104.43;15.93;;;;;;;;;;4942180;28;20236;-77
2022/12/21 08:38:38;;;;;;;73.60;15.30;;;;;;;;;;4959115;28;20222;-77
2022/12/21 08:41:06;;;;;;;18.07;13.73;;;;;;;;;;4964728;28;20707;-77
2022/12/21 08:43:37;;;;;;;29.67;14.57;;;;;;;;;;4958567;28;20226;-79
2022/12/21 08:46:04;;;;;;;41.77;14.30;;;;;;;;;;4972864;28;20277;-79
2022/12/21 08:48:32;;;;;;;35.50;13.03;;;;;;;;;;4938027;28;20233;-76
2022/12/21 08:50:57;;;;;;;101.80;15.93;;;;;;;;;;4969268;28;20628;-78
2022/12/21 08:53:24;;;;;;;89.80;17.57;;;;;;;;;;4956001;28;20308;-76
2022/12/21 08:55:49;;;;;;;95.93;16.73;;;;;;;;;;4976589;28;20608;-76
2022/12/21 08:58:15;;;;;;;95.27;18.27;;;;;;;;;;4966022;28;20221;-77
2022/12/21 09:00:42;;;;;;;45.80;16.33;;;;;;;;;;4956789;28;20293;-77
2022/12/21 09:03:08;;;;;;;99.37;17.80;;;;;;;;;;4961382;28;20244;-77
2022/12/21 09:05:36;;;;;;;49.90;17.47;;;;;;;;;;4961091;28;20300;-76
2022/12/21 09:08:02;;;;;;;88.77;18.73;;;;;;;;;;4947502;28;20289;-75
2022/12/21 09:10:28;;;;;;;123.17;18.20;;;;;;;;;;4957961;28;20328;-76
2022/12/21 09:12:55;;;;;;;39.30;16.40;;;;;;;;;;4972697;28;20214;-75
2022/12/21 09:15:23;;;;;;;75.17;18.37;;;;;;;;;;4961275;28;20222;-75
2022/12/21 09:17:49;;;;;;;38.30;16.73;;;;;;;;;;4959497;28;20300;-75
2022/12/21 09:20:17;;;;;;;24.17;15.97;;;;;;;;;;4966808;28;20761;-75
2022/12/21 09:22:44;;;;;;;34.30;18.13;;;;;;;;;;4957055;28;20272;-76
2022/12/21 09:25:10;;;;;;;43.03;19.23;;;;;;;;;;4958423;28;20333;-74
2022/12/21 09:27:38;;;;;;;74.80;32.27;;;;;;;;;;4959554;28;20273;-75
2022/12/21 09:30:07;;;;;;;39.13;24.60;;;;;;;;;;4957869;28;20433;-76
2022/12/21 09:32:35;;;;;;;53.53;26.90;;;;;;;;;;4975028;28;20230;-75
2022/12/21 09:35:01;;;;;;;70.60;25.90;;;;;;;;;;4953315;28;20236;-79
2022/12/21 09:37:28;;;;;;;36.37;21.53;;;;;;;;;;4950240;28;20234;-74
2022/12/21 09:39:53;;;;;;;191.33;24.83;;;;;;;;;;4953925;28;20282;-73
2022/12/21 09:42:31;;;;;;;98.33;21.67;;;;;;;;;;4976340;28;20242;-73
2022/12/21 09:45:15;;;;;;;39.30;18.43;;;;;;;;;;4987031;28;20699;-74
2022/12/21 09:47:47;;;;;;;27.53;19.27;;;;;;;;;;4970081;28;20229;-74
2022/12/21 09:50:27;;;;;;;32.43;19.23;;;;;;;;;;4958325;28;20226;-74
2022/12/21 09:53:21;;;;;;;33.47;19.90;;;;;;;;;;4966986;28;20728;-74
2022/12/21 09:55:48;;;;;;;29.73;18.70;;;;;;;;;;4972547;28;20218;-74
2022/12/21 09:58:18;;;;;;;34.37;19.70;;;;;;;;;;4960267;28;20226;-75
2022/12/21 10:00:45;;;;;;;29.93;19.23;;;;;;;;;;4959101;28;20288;-74
2022/12/21 10:03:33;;;;;;;28.47;19.87;;;;;;;;;;4964268;28;20232;-74
2022/12/21 10:06:27;;;;;;;33.63;20.70;;;;;;;;;;4975556;28;20226;-76
2022/12/21 10:09:36;;;;;;;32.10;20.93;;;;;;;;;;4989131;28;20228;-76
2022/12/21 10:12:26;;;;;;;32.20;19.63;;;;;;;;;;4980959;28;20607;-77
2022/12/21 10:15:10;;;;;;;32.20;19.43;;;;;;;;;;4984591;28;20304;-77
2022/12/21 10:18:02;;;;;;;29.30;18.83;;;;;;;;;;4976328;28;20233;-76
2022/12/21 10:20:54;;;;;;;32.00;19.67;;;;;;;;;;4959807;28;20250;-77
2022/12/21 10:23:27;;;;;;;27.97;18.50;;;;;;;;;;4965330;28;20229;-77
2022/12/21 10:25:57;;;;;;;30.90;20.20;;;;;;;;;;4942306;28;20227;-77
2022/12/21 10:28:47;;;;;;;32.77;21.60;;;;;;;;;;4958328;28;20228;-76
2022/12/21 10:31:19;;;;;;;49.80;21.83;;;;;;;;;;4989928;28;20233;-76
2022/12/21 10:33:49;;;;;;;37.47;22.97;;;;;;;;;;4978094;28;20226;-75
2022/12/21 10:36:20;;;;;;;31.30;21.10;;;;;;;;;;4955368;28;20234;-74
2022/12/21 10:38:46;;;;;;;35.17;22.80;;;;;;;;;;4948852;28;20225;-76
2022/12/21 10:41:16;;;;;;;29.47;20.33;;;;;;;;;;4968387;28;20225;-76
2022/12/21 10:43:41;;;;;;;32.40;19.83;;;;;;;;;;4943892;28;20230;-76
2022/12/21 10:46:07;;;;;;;29.63;19.97;;;;;;;;;;4948939;28;20234;-77
2022/12/21 10:48:33;;;;;;;35.37;20.83;;;;;;;;;;4958304;28;20618;-76
2022/12/21 10:51:12;;;;;;;32.87;21.53;;;;;;;;;;4965572;28;20616;-77
2022/12/21 10:53:41;;;;;;;31.37;20.23;;;;;;;;;;4963463;28;20236;-75
2022/12/21 10:56:06;;;;;;;28.33;20.33;;;;;;;;;;4947692;28;20230;-76
2022/12/21 10:58:34;;;;;;;29.40;19.17;;;;;;;;;;4963238;28;20234;-76
2022/12/21 11:01:26;;;;;;;27.40;19.53;;;;;;;;;;4957275;28;20303;-77
2022/12/21 11:04:14;;;;;;;32.10;20.50;;;;;;;;;;4945011;28;20221;-74
2022/12/21 11:06:42;;;;;;;27.33;19.70;;;;;;;;;;4941658;28;20344;-77
2022/12/21 11:09:30;;;;;;;25.87;18.47;;;;;;;;;;4956114;28;20639;-79
2022/12/21 11:11:56;;;;;;;27.37;19.00;;;;;;;;;;4964980;28;20308;-76
2022/12/21 11:14:23;;;;;;;29.90;19.17;;;;;;;;;;4957722;28;20225;-74
2022/12/21 11:16:48;;;;;;;28.37;20.30;;;;;;;;;;4954895;28;20242;-74
2022/12/21 11:19:22;;;;;;;28.87;20.53;;;;;;;;;;4950821;28;20225;-74
2022/12/21 11:21:50;;;;;;;28.27;18.77;;;;;;;;;;4968245;28;20289;-73
2022/12/21 11:24:16;;;;;;;29.60;21.67;;;;;;;;;;4949444;28;20574;-76
2022/12/21 11:26:57;;;;;;;31.93;23.17;;;;;;;;;;4966821;28;20250;-76
2022/12/21 11:29:25;;;;;;;46.30;34.60;;;;;;;;;;4950479;28;20268;-77
2022/12/21 11:31:53;;;;;;;34.03;25.57;;;;;;;;;;4949714;28;20782;-77
2022/12/21 11:34:28;;;;;;;27.27;18.50;;;;;;;;;;4953017;28;20228;-74
2022/12/21 11:36:59;;;;;;;25.43;17.17;;;;;;;;;;4971986;28;20313;-74
2022/12/21 11:39:25;;;;;;;23.17;16.87;;;;;;;;;;4954270;28;20213;-74
2022/12/21 11:41:51;;;;;;;23.47;15.27;;;;;;;;;;4961444;28;20784;-75
2022/12/21 11:44:22;;;;;;;23.60;17.90;;;;;;;;;;4946390;28;20360;-75
2022/12/21 11:46:57;;;;;;;22.93;17.53;;;;;;;;;;4950336;28;20746;-75
2022/12/21 11:49:38;;;;;;;25.43;19.43;;;;;;;;;;4959269;28;20313;-74
2022/12/21 11:52:28;;;;;;;21.47;17.07;;;;;;;;;;4990865;28;20707;-76
2022/12/21 11:55:11;;;;;;;24.33;17.37;;;;;;;;;;4983205;28;20267;-76
2022/12/21 11:57:53;;;;;;;25.93;17.30;;;;;;;;;;4967979;28;20726;-80
2022/12/21 12:00:22;;;;;;;21.83;17.20;;;;;;;;;;4968855;28;20879;-74
2022/12/21 12:03:11;;;;;;;23.13;17.07;;;;;;;;;;4956477;28;20305;-74
2022/12/21 12:05:58;;;;;;;21.93;15.60;;;;;;;;;;4991086;28;20226;-73
2022/12/21 12:09:22;;;;;;;22.60;18.07;;;;;;;;;;4993638;28;20278;-75
2022/12/21 12:12:06;;;;;;;28.10;17.97;;;;;;;;;;4958852;28;20230;-75
2022/12/21 12:14:52;;;;;;;21.93;18.50;;;;;;;;;;4998007;28;20283;-75
2022/12/21 12:17:29;;;;;;;23.00;18.73;;;;;;;;;;5006884;28;20289;-74
2022/12/21 12:20:23;;;;;;;24.93;20.33;;;;;;;;;;4998340;28;20223;-76
2022/12/21 12:23:04;;;;;;;32.83;23.50;;;;;;;;;;4995834;28;20252;-74
2022/12/21 12:25:48;;;;;;;28.07;22.17;;;;;;;;;;5005612;28;20221;-74
2022/12/21 12:29:01;;;;;;;27.00;20.77;;;;;;;;;;4984052;28;20241;-74
2022/12/21 12:31:30;;;;;;;21.43;16.20;;;;;;;;;;4929627;28;20227;-74
2022/12/21 12:34:16;;;;;;;25.80;18.73;;;;;;;;;;4939218;28;20233;-75
2022/12/21 12:37:14;;;;;;;22.10;18.17;;;;;;;;;;4985243;28;20240;-76
2022/12/21 12:40:01;;;;;;;21.67;17.00;;;;;;;;;;4983002;28;20229;-75
2022/12/21 12:42:32;;;;;;;24.13;17.10;;;;;;;;;;4992613;28;20263;-74
2022/12/21 12:45:13;;;;;;;21.13;17.03;;;;;;;;;;4967448;28;20213;-75
2022/12/21 12:47:44;;;;;;;21.17;16.90;;;;;;;;;;5008414;28;20292;-79
2022/12/21 12:50:34;;;;;;;22.20;17.70;;;;;;;;;;5012732;28;20229;-76
2022/12/21 12:53:02;;;;;;;21.13;17.27;;;;;;;;;;4974920;28;20312;-76
2022/12/21 12:56:00;;;;;;;21.97;17.57;;;;;;;;;;4995010;28;20216;-78
2022/12/21 12:58:45;;;;;;;20.53;17.03;;;;;;;;;;4973715;28;20225;-77
2022/12/21 13:01:18;;;;;;;20.27;16.83;;;;;;;;;;4998344;28;20233;-75
2022/12/21 13:04:10;;;;;;;20.47;15.90;;;;;;;;;;4984578;28;20221;-77
2022/12/21 13:07:03;;;;;;;19.43;16.40;;;;;;;;;;4994722;28;20224;-77
2022/12/21 13:10:06;;;;;;;17.30;14.83;;;;;;;;;;4985496;28;20279;-77
2022/12/21 13:12:34;;;;;;;16.10;14.33;;;;;;;;;;4970272;28;20774;-76
2022/12/21 13:15:04;;;;;;;19.40;14.80;;;;;;;;;;4989302;28;20268;-76
2022/12/21 13:17:52;;;;;;;18.87;15.13;;;;;;;;;;4998499;28;20284;-78
2022/12/21 13:20:22;;;;;;;16.17;13.47;;;;;;;;;;4983298;28;20219;-78
2022/12/21 13:22:53;;;;;;;19.50;15.73;;;;;;;;;;4970738;28;20224;-77
2022/12/21 13:25:25;;;;;;;17.97;16.13;;;;;;;;;;4994149;28;20225;-77
2022/12/21 13:27:54;;;;;;;18.43;15.23;;;;;;;;;;4981381;28;20718;-77
2022/12/21 13:30:25;;;;;;;15.50;13.40;;;;;;;;;;4980575;28;20613;-77
2022/12/21 13:32:55;;;;;;;20.60;14.53;;;;;;;;;;4976798;28;20226;-77
2022/12/21 13:35:26;;;;;;;16.20;14.27;;;;;;;;;;4975186;28;20225;-77
2022/12/21 13:37:59;;;;;;;17.70;14.40;;;;;;;;;;5000240;28;20286;-78
2022/12/21 13:40:36;;;;;;;16.63;14.67;;;;;;;;;;4977524;28;20228;-78
2022/12/21 13:43:09;;;;;;;16.87;13.57;;;;;;;;;;5004771;28;20225;-77
2022/12/21 13:45:45;;;;;;;15.87;12.67;;;;;;;;;;4996810;28;20220;-78
2022/12/21 13:48:26;;;;;;;14.90;13.37;;;;;;;;;;4996140;28;20228;-75
2022/12/21 13:51:16;;;;;;;16.57;14.43;;;;;;;;;;4980306;28;20291;-78
2022/12/21 13:54:16;;;;;;;16.70;14.07;;;;;;;;;;4982963;28;20225;-77
2022/12/21 13:56:45;;;;;;;17.90;13.37;;;;;;;;;;4999736;28;20241;-78
2022/12/21 13:59:32;;;;;;;15.67;12.97;;;;;;;;;;5006640;28;20635;-77
2022/12/21 14:02:25;;;;;;;18.97;15.13;;;;;;;;;;4975919;28;20234;-76
2022/12/21 14:05:02;;;;;;;16.87;14.97;;;;;;;;;;4995143;28;20307;-77
2022/12/21 14:07:53;;;;;;;21.43;17.90;;;;;;;;;;4984680;28;20229;-77
2022/12/21 14:10:36;;;;;;;19.27;16.43;;;;;;;;;;4994593;28;20214;-77
2022/12/21 14:13:21;;;;;;;20.70;16.47;;;;;;;;;;4984090;28;20731;-75
2022/12/21 14:15:56;;;;;;;22.33;14.97;;;;;;;;;;4974405;28;20218;-77
2022/12/21 14:18:43;;;;;;;19.30;16.10;;;;;;;;;;5000653;28;20607;-77
2022/12/21 14:21:11;;;;;;;22.63;17.97;;;;;;;;;;4989945;28;20225;-77
2022/12/21 14:23:44;;;;;;;19.93;17.03;;;;;;;;;;5004181;28;20230;-76
2022/12/21 14:26:30;;;;;;;25.10;17.77;;;;;;;;;;4981770;28;20228;-75
2022/12/21 14:28:57;;;;;;;18.93;15.17;;;;;;;;;;4974360;28;20240;-75
2022/12/21 14:31:31;;;;;;;23.87;17.90;;;;;;;;;;4982334;28;20217;-78
2022/12/21 14:33:59;;;;;;;18.20;15.73;;;;;;;;;;4985852;28;20608;-76
2022/12/21 14:36:31;;;;;;;20.43;16.33;;;;;;;;;;4958841;28;20222;-77
2022/12/21 14:39:00;;;;;;;20.07;17.43;;;;;;;;;;5000275;28;20309;-76
2022/12/21 14:41:31;;;;;;;21.83;16.37;;;;;;;;;;4984324;28;20642;-76
2022/12/21 14:44:09;;;;;;;25.97;19.67;;;;;;;;;;5003701;28;20218;-79
2022/12/21 14:47:03;;;;;;;19.23;17.20;;;;;;;;;;4986691;28;20887;-78
2022/12/21 14:49:31;;;;;;;20.93;16.47;;;;;;;;;;4983285;28;20225;-74
2022/12/21 14:51:57;;;;;;;19.30;16.67;;;;;;;;;;4968756;28;20288;-77
2022/12/21 14:54:34;;;;;;;20.07;16.47;;;;;;;;;;4989248;28;20225;-76
2022/12/21 14:57:08;;;;;;;18.20;16.07;;;;;;;;;;5004037;28;20225;-77
2022/12/21 14:59:39;;;;;;;26.43;20.80;;;;;;;;;;4999473;28;20229;-75
2022/12/21 15:02:17;;;;;;;30.27;22.77;;;;;;;;;;4976283;28;20259;-75
2022/12/21 15:04:50;;;;;;;23.50;19.27;;;;;;;;;;4994994;28;20224;-74